SBOSBO SIN / WSSS
Speedbird OnlineSpeedbird Online SIN / WSSS

Singapore Changi Airport
03:56 26.2°C

Location Singapore, Singapore
Latitude: 1.35019
Longitude: 103.994003
Web Airport Website | Wikipedia
Altitude 7 Meter / 22 Feet
Distance 10,842 KM / 6,737 Miles
from London.
Time Zone UTC +8 hours (Asia/Singapore)
Codes IATA: SIN
ICAO: WSSS
Currency £1 equals SGD 1.55
Runways
RunwayLength (m)Surface
02C4000Asphalt
02L4000Asphalt
02R4000Asphalt
20C4000Asphalt
20L4000Asphalt
20R4000Asphalt
Radio
TypeDescriptionFrequency
A/DAPP/DEP120.3
ARRARR119.3
ATISATIS128.6
CLDCLNC DEL121.65
GNDGND124.3
TWRTWR118.6
Live ATC
METAR WSSS 241930Z 17005KT 9999 FEW018 BKN300 26/25 Q1008 NOSIG
TAF TAF WSSS 241700Z 2418/2600 20008KT 9999 FEW015 BKN020 TEMPO 2420/2500 3000 TSRA FEW012CB BKN015
Weather As Of 25 Sep 2022 03:56
Description Broken clouds
Wind 10 km/h from South (170°)
Cloud Cover 75%
Precipitation Rain: none, Snow: none
Sunrise 06:52
Sunset 18:59
Lounges Cathay Pacific Lounge (Temporarily Closed), 4
SATS Premier Lounge, Departure Terminal
Qatar Airways Premium Lounge , Terminal 1
Plaza Premium Lounge, Terminal 1
British Airways Lounge, Terminal 1
Marhaba Lounge (Open), Terminal 1
The Qantas Singapore Lounge, Terminal 1
Dnata Lounge, Terminal 3
Rotations During the last 90 days there were
61 flights from SYD
60 flights from LHR
62 flights to SYD
58 flights to LHR


© 2017-2022 Speedbird Online